createdAt,value
2019-05-23T00:01:54.717Z,58.12
2019-05-23T00:05:27.955Z,58.27
2019-05-23T00:08:38.057Z,58.41
2019-05-23T00:11:30.600Z,58.75
2019-05-23T00:14:52.946Z,58.86
2019-05-23T00:17:43.495Z,58.99
2019-05-23T00:20:34.548Z,59.03
2019-05-23T00:23:26.739Z,59.13
2019-05-23T00:26:18.125Z,59.19
2019-05-23T00:29:10.625Z,59.30
2019-05-23T00:32:09.595Z,59.40
2019-05-23T00:34:59.483Z,59.55
2019-05-23T00:37:51.331Z,59.60
2019-05-23T00:40:43.514Z,59.60
2019-05-23T00:43:35.468Z,59.65
2019-05-23T00:46:26.409Z,59.64
2019-05-23T00:49:18.554Z,59.70
2019-05-23T00:52:09.890Z,59.75
2019-05-23T00:55:00.051Z,59.86
2019-05-23T00:57:51.771Z,60.00
2019-05-23T01:00:43.368Z,60.02
2019-05-23T01:03:34.266Z,60.06
2019-05-23T01:06:24.336Z,60.08
2019-05-23T01:09:14.740Z,60.14
2019-05-23T01:12:08.070Z,60.22
2019-05-23T01:14:58.232Z,60.26
2019-05-23T01:17:50.133Z,60.33
2019-05-23T01:20:53.439Z,60.39
2019-05-23T01:23:47.829Z,60.41
2019-05-23T01:26:38.783Z,60.54
2019-05-23T01:29:37.428Z,60.54
2019-05-23T01:32:41.532Z,60.50
2019-05-23T01:35:32.100Z,60.52
2019-05-23T01:38:22.964Z,60.61
2019-05-23T01:41:12.870Z,60.73
2019-05-23T01:44:05.230Z,60.71
2019-05-23T01:46:55.913Z,60.67
2019-05-23T01:49:47.565Z,60.66
2019-05-23T01:52:37.596Z,60.64
2019-05-23T01:55:27.390Z,60.60
2019-05-23T01:58:18.052Z,60.56
2019-05-23T02:01:08.973Z,60.49
2019-05-23T02:03:59.465Z,60.54
2019-05-23T02:06:49.641Z,60.50
2019-05-23T02:09:40.034Z,60.52
2019-05-23T02:12:31.071Z,60.67
2019-05-23T02:15:22.259Z,60.81
2019-05-23T02:18:12.578Z,60.89
2019-05-23T02:21:02.963Z,60.97
2019-05-23T02:23:52.485Z,60.99
2019-05-23T02:26:43.252Z,60.98
2019-05-23T02:29:33.952Z,61.10
2019-05-23T02:32:26.608Z,61.11
2019-05-23T02:35:17.287Z,61.15
2019-05-23T02:38:25.491Z,61.24
2019-05-23T02:41:40.577Z,61.28
2019-05-23T02:44:32.830Z,61.29
2019-05-23T02:47:29.841Z,61.46
2019-05-23T02:50:35.497Z,61.53
2019-05-23T02:53:31.389Z,61.54
2019-05-23T02:56:22.463Z,61.57
2019-05-23T02:59:49.135Z,61.62
2019-05-23T03:02:54.633Z,61.65
2019-05-23T03:05:45.259Z,61.78
2019-05-23T03:08:37.033Z,61.85
2019-05-23T03:11:42.299Z,61.89
2019-05-23T03:14:36.932Z,61.86
2019-05-23T03:17:29.967Z,61.83
2019-05-23T03:20:21.627Z,61.85
2019-05-23T03:23:13.953Z,62.01
2019-05-23T03:26:51.714Z,62.03
2019-05-23T03:29:42.148Z,62.07
2019-05-23T03:32:44.008Z,62.08
2019-05-23T03:35:40.309Z,62.11
2019-05-23T03:38:30.951Z,62.16
2019-05-23T03:41:21.887Z,62.15
2019-05-23T03:44:11.861Z,62.24
2019-05-23T03:47:04.205Z,62.26
2019-05-23T03:49:55.409Z,62.27
2019-05-23T03:52:46.458Z,62.22
2019-05-23T03:55:38.709Z,62.27
2019-05-23T03:58:29.924Z,62.30
2019-05-23T04:01:23.682Z,62.27
2019-05-23T04:04:15.442Z,62.25
2019-05-23T04:07:07.279Z,62.39
2019-05-23T04:09:57.442Z,62.36
2019-05-23T04:12:47.613Z,62.45
2019-05-23T04:15:37.972Z,62.47
2019-05-23T04:18:28.468Z,62.58
2019-05-23T04:21:22.436Z,62.66
2019-05-23T04:24:12.793Z,62.73
2019-05-23T04:27:03.925Z,62.70
2019-05-23T04:29:54.162Z,62.59
2019-05-23T04:32:44.373Z,62.55
2019-05-23T04:35:34.683Z,62.60
2019-05-23T04:38:25.346Z,62.63
2019-05-23T04:41:15.693Z,62.64
2019-05-23T04:44:06.904Z,62.51
2019-05-23T04:46:56.835Z,62.50
2019-05-23T04:49:48.538Z,62.50
2019-05-23T04:52:38.709Z,62.42
2019-05-23T04:55:29.344Z,62.37
2019-05-23T04:58:20.329Z,62.28
2019-05-23T05:01:11.305Z,62.17
2019-05-23T05:04:02.167Z,62.03
2019-05-23T05:06:53.220Z,61.96
2019-05-23T05:09:43.749Z,61.81
2019-05-23T05:12:34.917Z,61.68
2019-05-23T05:15:25.415Z,61.52
2019-05-23T05:18:16.428Z,61.35
2019-05-23T05:21:06.489Z,61.12
2019-05-23T05:23:56.827Z,60.86
2019-05-23T05:26:46.774Z,60.61
2019-05-23T05:29:36.772Z,60.31
2019-05-23T05:32:43.450Z,60.05
2019-05-23T05:35:19.570Z,59.81
2019-05-23T05:38:09.721Z,59.48
2019-05-23T05:40:59.989Z,59.27
2019-05-23T05:43:49.975Z,59.16
2019-05-23T05:46:40.552Z,58.80
2019-05-23T05:49:31.275Z,58.53
2019-05-23T05:52:21.306Z,58.31
2019-05-23T05:55:13.542Z,58.16
2019-05-23T05:58:03.731Z,57.92
2019-05-23T06:01:04.224Z,57.72
2019-05-23T06:03:54.149Z,57.60
2019-05-23T06:07:03.747Z,57.37
2019-05-23T06:09:55.836Z,57.12
2019-05-23T06:12:45.833Z,57.18
2019-05-23T06:15:35.673Z,57.04
2019-05-23T06:18:26.231Z,56.53
2019-05-23T06:21:19.159Z,56.29
2019-05-23T06:24:09.520Z,56.35
2019-05-23T06:26:59.624Z,56.04
2019-05-23T06:29:50.240Z,56.07
2019-05-23T06:32:40.294Z,55.96
2019-05-23T06:35:30.934Z,55.86
2019-05-23T06:38:20.923Z,55.22
2019-05-23T06:41:12.101Z,55.03
2019-05-23T06:44:03.109Z,55.11
2019-05-23T06:46:52.928Z,54.91
2019-05-23T06:49:42.993Z,54.86
2019-05-23T06:52:33.724Z,54.80
2019-05-23T06:55:23.517Z,54.64
2019-05-23T06:58:13.468Z,54.55
2019-05-23T07:01:03.933Z,54.01
2019-05-23T07:03:53.564Z,53.83
2019-05-23T07:06:44.485Z,53.67
2019-05-23T07:09:34.731Z,53.65
2019-05-23T07:12:24.937Z,53.39
2019-05-23T07:15:15.992Z,53.44
2019-05-23T07:18:06.278Z,53.21
2019-05-23T07:20:56.068Z,53.14
2019-05-23T07:23:45.997Z,52.87
2019-05-23T07:26:36.267Z,52.65
2019-05-23T07:29:26.558Z,52.41
2019-05-23T07:32:16.237Z,52.06
2019-05-23T07:35:07.120Z,51.37
2019-05-23T07:37:57.010Z,50.59
2019-05-23T07:40:48.175Z,50.47
2019-05-23T07:43:38.222Z,50.39
2019-05-23T07:46:28.245Z,50.55
2019-05-23T07:49:18.739Z,50.54
2019-05-23T07:52:09.117Z,50.31
2019-05-23T07:55:07.504Z,50.32
2019-05-23T07:57:58.116Z,49.88
2019-05-23T08:00:53.357Z,49.14
2019-05-23T08:03:44.005Z,48.81
2019-05-23T08:06:34.383Z,49.04
2019-05-23T08:09:25.188Z,48.79
2019-05-23T08:12:15.393Z,48.62
2019-05-23T08:15:06.549Z,48.42
2019-05-23T08:17:56.725Z,47.86
2019-05-23T08:20:47.625Z,47.64
2019-05-23T08:23:38.907Z,47.96
2019-05-23T08:26:30.720Z,47.67
2019-05-23T08:29:28.213Z,47.66
2019-05-23T08:32:12.577Z,47.59
2019-05-23T08:35:03.408Z,46.96
2019-05-23T08:37:55.016Z,46.79
2019-05-23T08:40:45.176Z,46.73
2019-05-23T08:43:35.605Z,46.54
2019-05-23T08:46:26.960Z,46.25
2019-05-23T08:49:16.658Z,46.45
2019-05-23T08:52:06.805Z,46.31
2019-05-23T08:55:03.128Z,46.11
2019-05-23T08:57:54.460Z,45.67
2019-05-23T09:00:45.986Z,46.03
2019-05-23T09:03:36.279Z,46.32
2019-05-23T09:06:26.655Z,46.29
2019-05-23T09:09:29.081Z,45.40
2019-05-23T09:12:11.692Z,45.38
2019-05-23T09:15:02.214Z,45.16
2019-05-23T09:17:54.103Z,44.28
2019-05-23T09:20:44.618Z,43.69
2019-05-23T09:23:35.767Z,43.85
2019-05-23T09:26:26.369Z,43.38
2019-05-23T09:29:16.951Z,42.95
2019-05-23T09:32:07.080Z,43.05
2019-05-23T09:34:57.254Z,42.96
2019-05-23T09:37:47.977Z,42.37
2019-05-23T09:40:38.236Z,42.31
2019-05-23T09:43:28.192Z,41.44
2019-05-23T09:46:23.231Z,41.43
2019-05-23T09:49:15.569Z,40.89
2019-05-23T09:52:11.093Z,40.55
2019-05-23T09:55:02.017Z,40.50
2019-05-23T09:57:51.885Z,40.35
2019-05-23T10:00:43.156Z,40.67
2019-05-23T10:03:33.820Z,40.08
2019-05-23T10:06:23.856Z,39.79
2019-05-23T10:09:13.722Z,39.51
2019-05-23T10:12:06.128Z,39.48
2019-05-23T10:14:57.043Z,38.99
2019-05-23T10:17:48.156Z,38.83
2019-05-23T10:20:38.373Z,38.55
2019-05-23T10:23:28.626Z,38.10
2019-05-23T10:26:18.635Z,37.01
2019-05-23T10:29:08.250Z,36.70
2019-05-23T10:31:58.677Z,36.19
2019-05-23T10:34:48.818Z,35.69
2019-05-23T10:37:38.919Z,34.98
2019-05-23T10:40:29.843Z,34.55
2019-05-23T10:43:19.533Z,33.81
2019-05-23T10:46:09.433Z,33.03
2019-05-23T10:48:59.169Z,32.40
2019-05-23T10:51:48.899Z,32.83
2019-05-23T10:54:38.344Z,32.25
2019-05-23T10:57:28.632Z,32.32
2019-05-23T11:00:22.191Z,31.81
2019-05-23T11:03:15.157Z,31.76
2019-05-23T11:06:15.723Z,30.95
2019-05-23T11:08:58.523Z,31.32
2019-05-23T11:11:48.489Z,31.06
2019-05-23T11:14:38.920Z,30.82
2019-05-23T11:17:29.121Z,29.81
2019-05-23T11:20:20.938Z,29.87
2019-05-23T11:23:12.478Z,30.68
2019-05-23T11:26:02.792Z,30.67
2019-05-23T11:28:53.015Z,30.47
2019-05-23T11:31:43.327Z,30.75
2019-05-23T11:34:32.963Z,31.09
2019-05-23T11:37:23.254Z,31.40
2019-05-23T11:40:13.469Z,30.88
2019-05-23T11:43:03.985Z,31.15
2019-05-23T11:46:10.419Z,31.24
2019-05-23T11:49:01.294Z,31.60
2019-05-23T11:51:51.530Z,30.54
2019-05-23T11:54:41.435Z,30.88
2019-05-23T11:57:31.565Z,30.43
2019-05-23T12:00:57.573Z,29.74
2019-05-23T12:03:49.477Z,29.10
2019-05-23T12:06:55.060Z,28.10
2019-05-23T12:09:37.430Z,28.18
2019-05-23T12:12:27.507Z,27.91
2019-05-23T12:15:24.227Z,27.38
2019-05-23T12:18:15.861Z,27.72
2019-05-23T12:21:06.682Z,28.15
2019-05-23T12:23:56.793Z,29.12
2019-05-23T12:26:47.061Z,29.27
2019-05-23T12:29:37.664Z,29.04
2019-05-23T12:32:27.678Z,29.22
2019-05-23T12:35:17.950Z,28.70
2019-05-23T12:38:09.320Z,29.02
2019-05-23T12:40:59.409Z,29.67
2019-05-23T12:43:49.445Z,29.96
2019-05-23T12:46:39.546Z,29.34
2019-05-23T12:49:41.679Z,29.47
2019-05-23T12:52:32.908Z,29.69
2019-05-23T12:55:23.083Z,29.94
2019-05-23T12:58:13.175Z,30.02
2019-05-23T13:01:05.192Z,29.87
2019-05-23T13:03:55.774Z,29.88
2019-05-23T13:06:47.823Z,30.30
2019-05-23T13:09:38.023Z,30.06
2019-05-23T13:12:29.155Z,30.10
2019-05-23T13:15:19.872Z,30.84
2019-05-23T13:18:09.205Z,31.38
2019-05-23T13:20:59.956Z,31.25
2019-05-23T13:23:50.325Z,31.15
2019-05-23T13:26:40.954Z,31.44
2019-05-23T13:29:30.826Z,31.47
2019-05-23T13:32:21.514Z,30.98
2019-05-23T13:35:12.317Z,31.25
2019-05-23T13:38:02.113Z,31.38
2019-05-23T13:40:52.431Z,30.87
2019-05-23T13:43:42.885Z,30.87
2019-05-23T13:46:33.217Z,30.68
2019-05-23T13:49:23.116Z,31.34
2019-05-23T13:52:13.555Z,31.03
2019-05-23T13:55:03.544Z,30.30
2019-05-23T13:57:53.448Z,29.83
2019-05-23T14:00:43.931Z,29.75
2019-05-23T14:03:34.302Z,30.18
2019-05-23T14:06:24.478Z,29.47
2019-05-23T14:09:15.906Z,29.10
2019-05-23T14:12:20.758Z,29.33
2019-05-23T14:14:59.160Z,29.32
2019-05-23T14:17:49.702Z,29.10
2019-05-23T14:20:39.953Z,29.29
2019-05-23T14:23:32.010Z,29.54
2019-05-23T14:26:22.162Z,29.18
2019-05-23T14:29:12.066Z,29.17
2019-05-23T14:32:14.447Z,29.45
2019-05-23T14:35:04.740Z,29.70
2019-05-23T14:37:56.676Z,29.79
2019-05-23T14:40:46.859Z,30.27
2019-05-23T14:43:37.515Z,30.22
2019-05-23T14:46:30.847Z,29.89
2019-05-23T14:49:27.591Z,30.23
2019-05-23T14:52:27.012Z,30.82
2019-05-23T14:55:17.423Z,31.45
2019-05-23T14:58:08.687Z,31.09
2019-05-23T15:00:59.184Z,31.20
2019-05-23T15:03:49.438Z,31.79
2019-05-23T15:06:39.560Z,31.20
2019-05-23T15:09:30.403Z,31.39
2019-05-23T15:12:19.700Z,31.14
2019-05-23T15:15:10.790Z,31.02
2019-05-23T15:18:01.201Z,31.10
2019-05-23T15:20:51.562Z,31.68
2019-05-23T15:23:41.662Z,31.48
2019-05-23T15:26:31.561Z,32.07
2019-05-23T15:29:21.285Z,31.94
2019-05-23T15:32:11.620Z,31.76
2019-05-23T15:35:01.521Z,31.35
2019-05-23T15:37:51.642Z,32.04
2019-05-23T15:40:41.944Z,31.81
2019-05-23T15:43:32.527Z,31.74
2019-05-23T15:46:22.526Z,32.37
2019-05-23T15:49:13.637Z,31.80
2019-05-23T15:52:18.780Z,31.52
2019-05-23T15:55:25.804Z,31.69
2019-05-23T15:58:34.441Z,31.61
2019-05-23T16:01:42.467Z,31.35
2019-05-23T16:04:32.706Z,31.53
2019-05-23T16:07:23.757Z,31.69
2019-05-23T16:10:15.743Z,31.71
2019-05-23T16:13:05.896Z,31.65
2019-05-23T16:15:57.445Z,32.08
2019-05-23T16:18:47.534Z,31.91
2019-05-23T16:21:38.694Z,32.55
2019-05-23T16:24:28.936Z,32.32
2019-05-23T16:27:19.128Z,32.25
2019-05-23T16:30:09.554Z,32.08
2019-05-23T16:32:59.402Z,31.95
2019-05-23T16:35:49.196Z,32.11
2019-05-23T16:38:38.978Z,32.39
2019-05-23T16:41:28.905Z,32.46
2019-05-23T16:44:20.116Z,32.39
2019-05-23T16:47:10.772Z,32.47
2019-05-23T16:50:00.228Z,32.45
2019-05-23T16:52:50.312Z,32.49
2019-05-23T16:55:46.088Z,32.50
2019-05-23T16:58:53.862Z,32.40
2019-05-23T17:02:06.399Z,32.59
2019-05-23T17:05:09.751Z,32.59
2019-05-23T17:08:18.554Z,32.94
2019-05-23T17:11:29.604Z,33.16
2019-05-23T17:14:32.935Z,33.25
2019-05-23T17:18:01.194Z,33.25
2019-05-23T17:20:48.509Z,33.42
2019-05-23T17:23:55.764Z,33.45
2019-05-23T17:26:57.681Z,33.48
2019-05-23T17:30:00.677Z,33.62
2019-05-23T17:32:50.871Z,33.98
2019-05-23T17:35:40.983Z,34.09
2019-05-23T17:38:31.410Z,34.06
2019-05-23T17:41:21.819Z,34.23
2019-05-23T17:44:11.862Z,34.20
2019-05-23T17:47:01.931Z,34.74
2019-05-23T17:49:51.803Z,34.71
2019-05-23T17:52:41.841Z,34.58
2019-05-23T17:55:32.538Z,34.56
2019-05-23T17:58:22.108Z,34.68
2019-05-23T18:01:12.213Z,34.79
2019-05-23T18:04:03.030Z,34.93
2019-05-23T18:06:53.901Z,35.04
2019-05-23T18:09:44.264Z,35.26
2019-05-23T18:12:34.793Z,35.30
2019-05-23T18:15:25.647Z,35.37
2019-05-23T18:18:15.959Z,35.49
2019-05-23T18:21:06.451Z,35.56
2019-05-23T18:23:57.061Z,35.61
2019-05-23T18:26:46.858Z,35.77
2019-05-23T18:29:37.076Z,35.96
2019-05-23T18:32:28.720Z,36.13
2019-05-23T18:35:20.730Z,36.21
2019-05-23T18:38:11.187Z,36.22
2019-05-23T18:41:05.797Z,36.39
2019-05-23T18:43:54.608Z,36.51
2019-05-23T18:46:47.764Z,36.65
2019-05-23T18:49:37.843Z,36.77
2019-05-23T18:52:28.145Z,36.98
2019-05-23T18:55:18.768Z,37.02
2019-05-23T18:58:08.354Z,37.03
2019-05-23T19:01:10.566Z,37.18
2019-05-23T19:04:02.030Z,37.41
2019-05-23T19:06:52.392Z,37.64
2019-05-23T19:09:42.903Z,37.96
2019-05-23T19:12:33.093Z,38.20
2019-05-23T19:15:23.107Z,38.47
2019-05-23T19:18:14.163Z,38.66
2019-05-23T19:21:06.130Z,38.74
2019-05-23T19:23:56.888Z,38.90
2019-05-23T19:26:48.532Z,39.00
2019-05-23T19:29:40.237Z,39.17
2019-05-23T19:32:30.539Z,39.43
2019-05-23T19:35:20.959Z,39.65
2019-05-23T19:38:12.024Z,39.81
2019-05-23T19:41:02.566Z,40.05
2019-05-23T19:43:53.174Z,40.38
2019-05-23T19:46:43.415Z,40.75
2019-05-23T19:49:33.002Z,41.04
2019-05-23T19:52:24.190Z,41.26
2019-05-23T19:55:14.661Z,41.46
2019-05-23T19:58:05.057Z,41.74
2019-05-23T20:00:54.855Z,41.96
2019-05-23T20:03:44.870Z,42.06
2019-05-23T20:06:34.825Z,42.30
2019-05-23T20:09:26.700Z,42.51
2019-05-23T20:12:16.949Z,42.77
2019-05-23T20:15:08.470Z,43.00
2019-05-23T20:17:59.339Z,43.29
2019-05-23T20:20:50.032Z,43.50
2019-05-23T20:23:39.720Z,43.74
2019-05-23T20:26:30.707Z,43.99
2019-05-23T20:29:21.129Z,44.14
2019-05-23T20:32:12.606Z,44.57
2019-05-23T20:35:02.705Z,44.77
2019-05-23T20:37:52.888Z,44.96
2019-05-23T20:40:42.774Z,45.06
2019-05-23T20:43:32.447Z,45.24
2019-05-23T20:46:22.594Z,45.55
2019-05-23T20:49:13.210Z,45.79
2019-05-23T20:52:03.464Z,45.88
2019-05-23T20:54:53.619Z,46.13
2019-05-23T20:57:43.538Z,46.28
2019-05-23T21:00:47.820Z,46.45
2019-05-23T21:03:37.863Z,46.67
2019-05-23T21:06:28.055Z,46.78
2019-05-23T21:09:18.619Z,46.91
2019-05-23T21:12:09.300Z,47.16
2019-05-23T21:14:59.645Z,47.21
2019-05-23T21:17:49.180Z,47.50
2019-05-23T21:20:39.905Z,47.70
2019-05-23T21:23:29.183Z,47.90
2019-05-23T21:26:18.974Z,48.09
2019-05-23T21:29:08.658Z,48.19
2019-05-23T21:31:58.774Z,48.40
2019-05-23T21:34:48.973Z,48.57
2019-05-23T21:37:38.690Z,48.68
2019-05-23T21:40:46.014Z,48.89
2019-05-23T21:43:35.784Z,49.05
2019-05-23T21:46:25.296Z,49.23
2019-05-23T21:49:15.751Z,49.54
2019-05-23T21:52:07.341Z,49.66
2019-05-23T21:54:56.403Z,49.87
2019-05-23T21:57:46.973Z,50.14
2019-05-23T22:01:39.318Z,50.15
2019-05-23T22:04:45.405Z,50.27
2019-05-23T22:07:35.565Z,50.60
2019-05-23T22:10:25.727Z,50.84
2019-05-23T22:13:15.429Z,51.12
2019-05-23T22:16:05.852Z,51.34
2019-05-23T22:18:55.766Z,51.41
2019-05-23T22:21:46.127Z,51.53
2019-05-23T22:24:36.408Z,51.69
2019-05-23T22:27:27.026Z,51.81
2019-05-23T22:30:17.550Z,51.98
2019-05-23T22:33:08.922Z,52.05
2019-05-23T22:36:00.570Z,52.19
2019-05-23T22:38:50.921Z,52.30
2019-05-23T22:41:40.770Z,52.43
2019-05-23T22:44:30.755Z,52.55
2019-05-23T22:47:20.858Z,52.68
2019-05-23T22:50:11.048Z,52.86
2019-05-23T22:53:00.811Z,53.04
2019-05-23T22:55:51.159Z,53.14
2019-05-23T22:58:41.410Z,53.27
2019-05-23T23:01:32.579Z,53.38
2019-05-23T23:04:22.680Z,53.51
2019-05-23T23:07:13.406Z,53.69
2019-05-23T23:10:03.199Z,53.72
2019-05-23T23:12:52.790Z,53.84
2019-05-23T23:15:42.618Z,53.94
2019-05-23T23:18:32.495Z,54.07
2019-05-23T23:21:22.670Z,54.21
2019-05-23T23:24:12.519Z,54.34
2019-05-23T23:27:02.458Z,54.46
2019-05-23T23:29:52.319Z,54.56
2019-05-23T23:32:42.653Z,54.71
2019-05-23T23:35:32.744Z,54.82
2019-05-23T23:38:22.727Z,54.91
2019-05-23T23:41:13.020Z,54.95
2019-05-23T23:44:02.986Z,55.00
2019-05-23T23:47:11.448Z,55.14
2019-05-23T23:50:19.567Z,55.19
2019-05-23T23:53:27.402Z,55.29
2019-05-23T23:56:35.669Z,55.35
2019-05-23T23:59:24.394Z,55.41
